Time;durP1;ratioP1;P1;durP2;ratioP2;P2;SDS_P1;SDS_P2;PMS_P1;PMS_P2;Temp;Humidity;BMP_temperature;BMP_pressure;BME280_temperature;BME280_humidity;BME280_pressure;Samples;Min_cycle;Max_cycle;Signal;HPM_P1;HPM_P2
2022/10/18 00:08:54;;;;;;;14.33;5.60;;;15.80;99.90;;;;;;20912354;28;20642;-73
2022/10/18 00:18:56;;;;;;;17.83;5.97;;;15.70;99.90;;;;;;20905663;28;20601;-74
2022/10/18 00:29:02;;;;;;;12.43;5.47;;;15.60;99.90;;;;;;20910340;28;20271;-74
2022/10/18 00:39:06;;;;;;;8.40;4.90;;;15.70;99.90;;;;;;20911495;28;20664;-74
2022/10/18 00:49:17;;;;;;;14.73;5.30;;;15.60;99.90;;;;;;20911011;28;20238;-74
2022/10/18 00:59:19;;;;;;;8.17;5.07;;;15.50;99.90;;;;;;20910928;28;20199;-74
2022/10/18 01:09:50;;;;;;;9.80;5.10;;;15.50;99.90;;;;;;20914139;28;20705;-75
2022/10/18 01:20:26;;;;;;;9.47;4.93;;;15.60;99.90;;;;;;20923346;28;20204;-73
2022/10/18 01:30:37;;;;;;;15.73;5.37;;;15.60;99.90;;;;;;20924294;28;20290;-73
2022/10/18 01:40:41;;;;;;;13.87;4.87;;;15.60;99.90;;;;;;20923885;28;20275;-74
2022/10/18 01:50:42;;;;;;;16.47;4.93;;;15.70;99.90;;;;;;20923230;28;20246;-73
2022/10/18 02:00:49;;;;;;;11.90;4.80;;;15.70;99.90;;;;;;20922520;28;20238;-72
2022/10/18 02:11:06;;;;;;;13.27;5.27;;;15.70;99.90;;;;;;20921435;28;20285;-73
2022/10/18 02:21:12;;;;;;;11.03;4.87;;;15.80;99.90;;;;;;20889599;28;20211;-75
2022/10/18 02:31:26;;;;;;;14.00;5.00;;;15.80;99.90;;;;;;20834312;28;20240;-73
2022/10/18 02:41:29;;;;;;;11.47;5.07;;;15.70;99.90;;;;;;20836666;28;20788;-74
2022/10/18 02:51:31;;;;;;;9.00;5.30;;;15.70;99.90;;;;;;20835562;28;20209;-74
2022/10/18 03:01:34;;;;;;;7.93;5.00;;;15.80;99.90;;;;;;20834749;28;20212;-73
2022/10/18 03:11:36;;;;;;;10.30;4.80;;;15.80;99.90;;;;;;20834357;28;20243;-73
2022/10/18 03:21:38;;;;;;;19.87;5.87;;;15.80;99.90;;;;;;20832899;28;20271;-74
2022/10/18 03:31:40;;;;;;;14.93;6.20;;;15.90;99.90;;;;;;20832056;28;20209;-74
2022/10/18 03:41:41;;;;;;;9.90;6.03;;;15.90;99.90;;;;;;20830682;28;20212;-73
2022/10/18 03:51:43;;;;;;;9.53;5.70;;;15.80;99.90;;;;;;20830975;28;20570;-74
2022/10/18 04:01:45;;;;;;;12.83;6.23;;;15.90;99.90;;;;;;20830303;28;20256;-73
2022/10/18 04:11:49;;;;;;;11.70;5.67;;;15.80;99.90;;;;;;20830966;28;20302;-73
2022/10/18 04:21:51;;;;;;;13.33;5.93;;;15.90;99.90;;;;;;20828379;28;20243;-73
2022/10/18 04:31:53;;;;;;;16.17;6.10;;;15.90;99.90;;;;;;20828095;28;20664;-76
2022/10/18 04:41:55;;;;;;;7.63;5.30;;;15.90;99.90;;;;;;20833391;28;20291;-77
2022/10/18 04:51:56;;;;;;;21.90;5.40;;;15.90;99.90;;;;;;20847066;28;20266;-75
2022/10/18 05:01:58;;;;;;;7.33;5.30;;;15.90;99.90;;;;;;20859179;28;20722;-70
2022/10/18 05:12:00;;;;;;;15.67;5.90;;;15.90;99.90;;;;;;20842595;28;20244;-71
2022/10/18 05:22:02;;;;;;;21.17;6.73;;;15.90;99.90;;;;;;20841065;28;20238;-71
2022/10/18 05:32:03;;;;;;;16.30;7.53;;;15.90;99.90;;;;;;20840941;28;20264;-72
2022/10/18 05:42:05;;;;;;;15.33;6.80;;;15.80;99.90;;;;;;20841402;28;20236;-72
2022/10/18 05:52:07;;;;;;;20.73;5.90;;;15.80;99.90;;;;;;20839011;28;20216;-71
2022/10/18 06:02:11;;;;;;;12.97;5.73;;;15.80;99.90;;;;;;20838189;28;20224;-71
2022/10/18 06:12:12;;;;;;;14.27;6.10;;;15.90;99.90;;;;;;20837621;28;20720;-72
2022/10/18 06:22:14;;;;;;;15.83;6.73;;;15.90;99.90;;;;;;20856475;28;20687;-71
2022/10/18 06:32:16;;;;;;;16.90;6.63;;;15.90;99.90;;;;;;20916015;28;20257;-72
2022/10/18 06:42:18;;;;;;;11.77;7.27;;;15.90;99.90;;;;;;20917676;28;20239;-71
2022/10/18 06:52:24;;;;;;;15.63;6.90;;;15.80;99.90;;;;;;20915749;28;20239;-71
2022/10/18 07:02:26;;;;;;;17.57;7.30;;;15.90;99.90;;;;;;20915487;28;20590;-72
2022/10/18 07:12:27;;;;;;;17.17;8.57;;;16.00;99.90;;;;;;20914954;28;20277;-71
2022/10/18 07:22:29;;;;;;;30.80;18.03;;;16.10;99.90;;;;;;20914950;28;20235;-71
2022/10/18 07:32:31;;;;;;;34.60;13.60;;;16.30;99.90;;;;;;20913073;28;20211;-72
2022/10/18 07:42:34;;;;;;;18.80;9.83;;;16.50;99.90;;;;;;20913118;28;20229;-71
2022/10/18 07:52:36;;;;;;;23.77;9.43;;;16.60;99.90;;;;;;20912869;28;20267;-71
2022/10/18 08:02:37;;;;;;;44.37;18.33;;;16.70;99.90;;;;;;20911619;28;20683;-71
2022/10/18 08:12:39;;;;;;;27.77;14.70;;;16.80;99.90;;;;;;20911990;28;20232;-71
2022/10/18 08:22:41;;;;;;;13.77;7.90;;;17.10;99.90;;;;;;20906245;28;20234;-72
2022/10/18 08:32:42;;;;;;;13.17;7.17;;;17.20;99.90;;;;;;20853684;28;20259;-72
2022/10/18 08:43:06;;;;;;;22.30;11.73;;;17.30;99.90;;;;;;20857294;28;20237;-72
2022/10/18 08:53:32;;;;;;;19.23;12.30;;;17.30;99.90;;;;;;20854868;28;20210;-72
2022/10/18 09:04:14;;;;;;;21.43;12.27;;;17.40;99.90;;;;;;20854186;28;20236;-72
2022/10/18 09:14:34;;;;;;;28.40;12.77;;;17.30;99.90;;;;;;20853844;28;20604;-71
2022/10/18 09:24:44;;;;;;;44.77;18.40;;;17.20;99.90;;;;;;20852140;28;20241;-71
2022/10/18 09:35:12;;;;;;;44.83;18.60;;;17.20;99.90;;;;;;20842308;28;20566;-71
2022/10/18 09:45:33;;;;;;;42.93;20.60;;;17.30;99.90;;;;;;20839460;28;20784;-71
2022/10/18 09:55:41;;;;;;;35.77;18.43;;;17.50;99.90;;;;;;20839361;28;20205;-72
2022/10/18 10:05:43;;;;;;;26.13;14.47;;;17.70;99.90;;;;;;20836905;28;20237;-71
2022/10/18 10:15:53;;;;;;;23.20;13.17;;;17.90;99.90;;;;;;20851960;28;20240;-72
2022/10/18 10:26:00;;;;;;;23.03;12.03;;;18.00;99.90;;;;;;20835945;28;20288;-71
2022/10/18 10:36:05;;;;;;;15.70;8.40;;;18.10;99.90;;;;;;20833939;28;20723;-72
2022/10/18 10:46:35;;;;;;;15.87;8.83;;;18.20;99.90;;;;;;20833516;28;20235;-71
2022/10/18 10:57:03;;;;;;;18.83;7.87;;;18.30;99.90;;;;;;20834028;28;20207;-72
2022/10/18 11:07:08;;;;;;;13.53;8.10;;;18.50;99.90;;;;;;20832468;28;20236;-71
2022/10/18 11:17:33;;;;;;;10.40;7.70;;;18.70;99.90;;;;;;20832198;28;20293;-71
2022/10/18 11:27:59;;;;;;;17.97;9.20;;;18.70;99.90;;;;;;20831275;28;20242;-71
2022/10/18 11:38:21;;;;;;;20.17;9.50;;;18.80;99.90;;;;;;20830987;28;20226;-71
2022/10/18 11:48:56;;;;;;;16.40;7.03;;;18.80;99.90;;;;;;20830767;28;20235;-70
2022/10/18 11:59:26;;;;;;;14.23;7.27;;;18.90;99.90;;;;;;20829331;28;20734;-72
2022/10/18 12:09:33;;;;;;;14.77;8.13;;;19.10;99.90;;;;;;20829636;28;20274;-70
2022/10/18 12:19:36;;;;;;;15.53;8.90;;;19.20;99.90;;;;;;20829023;28;20208;-72
2022/10/18 12:29:46;;;;;;;15.53;8.47;;;19.20;99.90;;;;;;20827027;28;20243;-73
2022/10/18 12:40:28;;;;;;;11.03;8.50;;;19.10;99.90;;;;;;20827601;28;20690;-72
2022/10/18 12:50:33;;;;;;;19.80;8.70;;;19.20;99.90;;;;;;20826667;28;20232;-69
2022/10/18 13:00:40;;;;;;;13.10;6.17;;;19.30;99.90;;;;;;20827382;28;20659;-69
2022/10/18 13:10:43;;;;;;;12.63;4.90;;;19.30;99.90;;;;;;20846906;28;20242;-71
2022/10/18 13:21:10;;;;;;;13.07;4.50;;;19.20;99.90;;;;;;20890522;28;20210;-70
2022/10/18 13:31:38;;;;;;;6.07;3.67;;;19.40;99.90;;;;;;20897394;28;20236;-69
2022/10/18 13:41:46;;;;;;;5.93;2.50;;;19.40;99.90;;;;;;20841357;28;20271;-70
2022/10/18 13:52:25;;;;;;;9.37;1.97;;;19.30;99.90;;;;;;20840546;28;20242;-68
2022/10/18 14:03:18;;;;;;;4.10;2.07;;;19.20;99.90;;;;;;20837895;28;20210;-71
2022/10/18 14:14:00;;;;;;;2.70;1.73;;;19.30;99.90;;;;;;20894067;28;20714;-70
2022/10/18 14:24:13;;;;;;;5.53;3.40;;;19.40;99.90;;;;;;20918166;28;20637;-70
2022/10/18 14:34:15;;;;;;;6.23;1.93;;;19.40;99.90;;;;;;20893286;28;20215;-71
2022/10/18 14:44:25;;;;;;;2.63;1.60;;;19.30;99.90;;;;;;20830266;28;20231;-70
2022/10/18 14:54:32;;;;;;;3.33;1.90;;;19.10;99.90;;;;;;20859434;28;20669;-71
2022/10/18 15:04:34;;;;;;;7.03;2.77;;;19.00;99.90;;;;;;20915624;28;20234;-66
2022/10/18 15:19:13;;;;;;;7.07;2.20;;;19.10;99.90;;;;;;21252372;27;20574;-67
2022/10/18 15:29:18;;;;;;;10.43;3.40;;;19.20;99.90;;;;;;21235112;27;20728;-70
2022/10/18 15:39:23;;;;;;;7.03;3.80;;;19.30;99.90;;;;;;21236829;27;20208;-68
2022/10/18 15:49:49;;;;;;;8.27;1.70;;;19.10;99.90;;;;;;21233172;27;20228;-68
2022/10/18 16:00:02;;;;;;;2.93;1.03;;;19.00;99.90;;;;;;21232957;27;20266;-70
2022/10/18 16:10:12;;;;;;;2.57;1.10;;;18.80;99.90;;;;;;21232736;28;20740;-69
2022/10/18 16:20:20;;;;;;;3.23;1.20;;;18.70;99.90;;;;;;21232031;27;20212;-70
2022/10/18 16:30:34;;;;;;;3.90;1.40;;;18.60;99.90;;;;;;21174880;28;20298;-70
2022/10/18 16:40:36;;;;;;;1.63;1.40;;;18.40;99.90;;;;;;21127540;28;20242;-70
2022/10/18 16:50:42;;;;;;;4.60;2.20;;;18.30;99.90;;;;;;21086348;28;20265;-70
2022/10/18 17:00:45;;;;;;;5.47;1.90;;;18.20;99.90;;;;;;21087861;28;20217;-70
2022/10/18 17:10:51;;;;;;;4.77;2.30;;;18.10;99.90;;;;;;21087061;28;20617;-69
2022/10/18 17:20:53;;;;;;;3.97;2.00;;;17.90;99.90;;;;;;21085596;28;20205;-75
2022/10/18 17:30:55;;;;;;;7.87;2.30;;;17.80;99.90;;;;;;21084998;28;20230;-71
2022/10/18 17:40:57;;;;;;;5.00;2.50;;;17.70;99.90;;;;;;21084139;28;20274;-69
2022/10/18 17:50:58;;;;;;;5.43;3.20;;;17.70;99.90;;;;;;21116954;28;20230;-68
2022/10/18 18:01:16;;;;;;;11.40;4.00;;;17.50;99.90;;;;;;21083067;28;20211;-67
2022/10/18 18:11:18;;;;;;;9.40;4.07;;;17.40;99.90;;;;;;21082084;28;20293;-68
2022/10/18 18:21:20;;;;;;;12.43;5.80;;;17.20;99.90;;;;;;21080784;28;20202;-68
2022/10/18 18:31:23;;;;;;;9.83;4.90;;;17.10;99.90;;;;;;21079022;28;20573;-68
2022/10/18 18:41:27;;;;;;;8.73;4.90;;;16.90;99.90;;;;;;21114600;28;20260;-69
2022/10/18 18:51:29;;;;;;;10.30;4.13;;;16.90;99.90;;;;;;21138649;28;20237;-67
2022/10/18 19:01:34;;;;;;;11.30;4.10;;;16.80;99.90;;;;;;21162031;28;20268;-70
2022/10/18 19:11:37;;;;;;;7.63;4.83;;;16.70;99.90;;;;;;21121897;28;20240;-66
2022/10/18 19:21:43;;;;;;;7.70;4.83;;;16.50;99.90;;;;;;21161789;28;20198;-69
2022/10/18 19:31:44;;;;;;;9.17;4.43;;;16.40;99.90;;;;;;21162110;28;20230;-68
2022/10/18 19:41:51;;;;;;;9.90;4.70;;;16.30;99.90;;;;;;21161829;28;20202;-67
2022/10/18 19:51:52;;;;;;;6.83;4.70;;;16.20;99.90;;;;;;21163107;28;20292;-67
2022/10/18 20:01:54;;;;;;;8.00;4.30;;;16.10;99.90;;;;;;21166119;28;20202;-67
2022/10/18 20:11:56;;;;;;;13.60;4.10;;;16.00;99.90;;;;;;21171854;28;20250;-67
2022/10/18 20:21:57;;;;;;;6.57;4.03;;;15.80;99.90;;;;;;21173613;28;20214;-67
2022/10/18 20:31:59;;;;;;;17.63;6.17;;;15.90;99.90;;;;;;21172349;28;20234;-66
2022/10/18 20:42:01;;;;;;;24.60;5.90;;;15.70;99.90;;;;;;21171772;28;20206;-67
2022/10/18 20:52:03;;;;;;;19.37;7.33;;;15.70;99.90;;;;;;21171445;28;20251;-70
2022/10/18 21:02:05;;;;;;;126.03;8.40;;;15.60;99.90;;;;;;21168817;28;20217;-71
2022/10/18 21:12:07;;;;;;;38.40;6.97;;;15.60;99.90;;;;;;21168998;28;20249;-70
2022/10/18 21:22:08;;;;;;;22.50;6.53;;;15.50;99.90;;;;;;21169154;28;20231;-67
2022/10/18 21:32:10;;;;;;;27.00;8.10;;;15.30;99.90;;;;;;21167657;28;20237;-68
2022/10/18 21:42:12;;;;;;;93.93;9.93;;;15.20;99.90;;;;;;21167054;28;20659;-68
2022/10/18 21:52:15;;;;;;;32.30;8.80;;;15.10;99.90;;;;;;21166607;28;20259;-67
2022/10/18 22:02:17;;;;;;;91.47;8.43;;;15.10;99.90;;;;;;21143320;28;20619;-68
2022/10/18 22:12:18;;;;;;;14.57;6.70;;;15.10;99.90;;;;;;21078275;28;20307;-68
2022/10/18 22:22:20;;;;;;;11.43;7.03;;;15.10;99.90;;;;;;21128010;28;20205;-68
2022/10/18 22:32:22;;;;;;;30.57;7.07;;;15.20;99.90;;;;;;21160081;28;20229;-69
2022/10/18 22:42:23;;;;;;;19.63;6.10;;;15.20;99.90;;;;;;21162548;28;20202;-67
2022/10/18 22:52:25;;;;;;;29.93;4.80;;;15.20;99.90;;;;;;21162007;28;20273;-66
2022/10/18 23:02:27;;;;;;;20.03;5.30;;;15.10;99.90;;;;;;21161509;28;20717;-66
2022/10/18 23:12:28;;;;;;;47.57;6.23;;;15.00;99.90;;;;;;21160431;28;20717;-67
2022/10/18 23:22:30;;;;;;;32.80;5.20;;;15.10;99.90;;;;;;21160627;28;20201;-66
2022/10/18 23:32:33;;;;;;;27.10;5.23;;;15.00;99.90;;;;;;21162759;28;20226;-68
2022/10/18 23:42:35;;;;;;;62.90;5.60;;;15.00;99.90;;;;;;21176770;28;20214;-68
2022/10/18 23:52:37;;;;;;;26.03;5.03;;;14.90;99.90;;;;;;21175805;28;20613;-67
